sensor_id;sensor_type;location;lat;lon;timestamp;P1;durP1;ratioP1;P2;durP2;ratioP2
59930;SDS011;45790;51.538;6.736;2022-07-22T00:01:37;1.25;;;0.65;;
59930;SDS011;45790;51.538;6.736;2022-07-22T00:04:02;1.73;;;0.70;;
59930;SDS011;45790;51.538;6.736;2022-07-22T00:06:28;2.08;;;0.70;;
59930;SDS011;45790;51.538;6.736;2022-07-22T00:08:54;2.28;;;0.80;;
59930;SDS011;45790;51.538;6.736;2022-07-22T00:11:20;2.38;;;1.00;;
59930;SDS011;45790;51.538;6.736;2022-07-22T00:13:45;1.90;;;0.80;;
59930;SDS011;45790;51.538;6.736;2022-07-22T00:16:11;1.83;;;0.77;;
59930;SDS011;45790;51.538;6.736;2022-07-22T00:18:36;4.00;;;1.00;;
59930;SDS011;45790;51.538;6.736;2022-07-22T00:21:01;2.17;;;1.00;;
59930;SDS011;45790;51.538;6.736;2022-07-22T00:23:27;3.00;;;1.17;;
59930;SDS011;45790;51.538;6.736;2022-07-22T00:25:52;3.28;;;0.95;;
59930;SDS011;45790;51.538;6.736;2022-07-22T00:28:18;1.75;;;0.90;;
59930;SDS011;45790;51.538;6.736;2022-07-22T00:30:44;2.13;;;0.82;;
59930;SDS011;45790;51.538;6.736;2022-07-22T00:33:09;4.43;;;0.90;;
59930;SDS011;45790;51.538;6.736;2022-07-22T00:35:34;3.40;;;1.10;;
59930;SDS011;45790;51.538;6.736;2022-07-22T00:38:00;2.53;;;0.90;;
59930;SDS011;45790;51.538;6.736;2022-07-22T00:40:25;3.33;;;1.10;;
59930;SDS011;45790;51.538;6.736;2022-07-22T00:42:50;2.45;;;1.00;;
59930;SDS011;45790;51.538;6.736;2022-07-22T00:45:17;3.72;;;1.30;;
59930;SDS011;45790;51.538;6.736;2022-07-22T00:47:43;3.10;;;1.00;;
59930;SDS011;45790;51.538;6.736;2022-07-22T00:50:08;2.30;;;0.80;;
59930;SDS011;45790;51.538;6.736;2022-07-22T00:52:33;2.10;;;0.90;;
59930;SDS011;45790;51.538;6.736;2022-07-22T00:55:00;3.25;;;0.80;;
59930;SDS011;45790;51.538;6.736;2022-07-22T00:57:26;3.63;;;0.88;;
59930;SDS011;45790;51.538;6.736;2022-07-22T00:59:52;1.90;;;1.02;;
59930;SDS011;45790;51.538;6.736;2022-07-22T01:02:17;1.83;;;0.90;;
59930;SDS011;45790;51.538;6.736;2022-07-22T01:04:42;2.50;;;1.02;;
59930;SDS011;45790;51.538;6.736;2022-07-22T01:07:08;3.25;;;1.00;;
59930;SDS011;45790;51.538;6.736;2022-07-22T01:09:33;2.50;;;0.85;;
59930;SDS011;45790;51.538;6.736;2022-07-22T01:11:58;3.83;;;1.02;;
59930;SDS011;45790;51.538;6.736;2022-07-22T01:14:24;2.45;;;0.90;;
59930;SDS011;45790;51.538;6.736;2022-07-22T01:16:49;3.20;;;0.90;;
59930;SDS011;45790;51.538;6.736;2022-07-22T01:19:14;3.30;;;0.80;;
59930;SDS011;45790;51.538;6.736;2022-07-22T01:21:40;2.38;;;0.80;;
59930;SDS011;45790;51.538;6.736;2022-07-22T01:24:06;2.70;;;0.93;;
59930;SDS011;45790;51.538;6.736;2022-07-22T01:26:31;4.00;;;1.05;;
59930;SDS011;45790;51.538;6.736;2022-07-22T01:28:58;3.83;;;0.93;;
59930;SDS011;45790;51.538;6.736;2022-07-22T01:31:23;3.10;;;0.90;;
59930;SDS011;45790;51.538;6.736;2022-07-22T01:33:49;4.00;;;1.10;;
59930;SDS011;45790;51.538;6.736;2022-07-22T01:36:14;2.58;;;0.90;;
59930;SDS011;45790;51.538;6.736;2022-07-22T01:38:39;2.13;;;0.98;;
59930;SDS011;45790;51.538;6.736;2022-07-22T01:41:05;1.55;;;0.70;;
59930;SDS011;45790;51.538;6.736;2022-07-22T01:43:30;2.88;;;1.10;;
59930;SDS011;45790;51.538;6.736;2022-07-22T01:45:56;3.33;;;1.23;;
59930;SDS011;45790;51.538;6.736;2022-07-22T01:48:21;3.85;;;1.00;;
59930;SDS011;45790;51.538;6.736;2022-07-22T01:50:47;2.90;;;1.00;;
59930;SDS011;45790;51.538;6.736;2022-07-22T01:53:13;2.45;;;0.63;;
59930;SDS011;45790;51.538;6.736;2022-07-22T01:55:38;1.13;;;0.52;;
59930;SDS011;45790;51.538;6.736;2022-07-22T01:58:04;1.20;;;0.50;;
59930;SDS011;45790;51.538;6.736;2022-07-22T02:00:33;4.07;;;0.70;;
59930;SDS011;45790;51.538;6.736;2022-07-22T02:02:58;1.98;;;0.70;;
59930;SDS011;45790;51.538;6.736;2022-07-22T02:05:24;1.35;;;0.68;;
59930;SDS011;45790;51.538;6.736;2022-07-22T02:07:49;2.05;;;0.68;;
59930;SDS011;45790;51.538;6.736;2022-07-22T02:10:15;2.20;;;0.60;;
59930;SDS011;45790;51.538;6.736;2022-07-22T02:12:40;1.10;;;0.60;;
59930;SDS011;45790;51.538;6.736;2022-07-22T02:15:06;1.95;;;0.70;;
59930;SDS011;45790;51.538;6.736;2022-07-22T02:17:32;1.77;;;0.70;;
59930;SDS011;45790;51.538;6.736;2022-07-22T02:19:58;1.60;;;0.55;;
59930;SDS011;45790;51.538;6.736;2022-07-22T02:22:24;2.13;;;0.63;;
59930;SDS011;45790;51.538;6.736;2022-07-22T02:24:49;2.03;;;0.65;;
59930;SDS011;45790;51.538;6.736;2022-07-22T02:27:14;1.42;;;0.70;;
59930;SDS011;45790;51.538;6.736;2022-07-22T02:29:39;1.73;;;0.60;;
59930;SDS011;45790;51.538;6.736;2022-07-22T02:32:05;1.38;;;0.60;;
59930;SDS011;45790;51.538;6.736;2022-07-22T02:34:30;3.35;;;0.75;;
59930;SDS011;45790;51.538;6.736;2022-07-22T02:36:56;1.98;;;0.70;;
59930;SDS011;45790;51.538;6.736;2022-07-22T02:39:21;3.55;;;0.88;;
59930;SDS011;45790;51.538;6.736;2022-07-22T02:41:47;1.50;;;0.73;;
59930;SDS011;45790;51.538;6.736;2022-07-22T02:44:12;1.70;;;0.73;;
59930;SDS011;45790;51.538;6.736;2022-07-22T02:46:37;2.20;;;0.77;;
59930;SDS011;45790;51.538;6.736;2022-07-22T02:49:03;3.05;;;1.00;;
59930;SDS011;45790;51.538;6.736;2022-07-22T02:51:29;3.20;;;0.85;;
59930;SDS011;45790;51.538;6.736;2022-07-22T02:53:54;2.78;;;0.70;;
59930;SDS011;45790;51.538;6.736;2022-07-22T02:56:20;1.40;;;0.60;;
59930;SDS011;45790;51.538;6.736;2022-07-22T02:58:45;2.47;;;0.90;;
59930;SDS011;45790;51.538;6.736;2022-07-22T03:01:17;3.88;;;0.85;;
59930;SDS011;45790;51.538;6.736;2022-07-22T03:03:42;1.63;;;0.70;;
59930;SDS011;45790;51.538;6.736;2022-07-22T03:06:08;1.73;;;0.80;;
59930;SDS011;45790;51.538;6.736;2022-07-22T03:08:33;3.00;;;0.65;;
59930;SDS011;45790;51.538;6.736;2022-07-22T03:10:58;1.90;;;0.80;;
59930;SDS011;45790;51.538;6.736;2022-07-22T03:13:24;1.80;;;0.90;;
59930;SDS011;45790;51.538;6.736;2022-07-22T03:15:49;2.63;;;0.80;;
59930;SDS011;45790;51.538;6.736;2022-07-22T03:18:14;1.48;;;0.73;;
59930;SDS011;45790;51.538;6.736;2022-07-22T03:20:40;4.13;;;0.80;;
59930;SDS011;45790;51.538;6.736;2022-07-22T03:23:05;1.40;;;0.52;;
59930;SDS011;45790;51.538;6.736;2022-07-22T03:25:30;2.70;;;0.95;;
59930;SDS011;45790;51.538;6.736;2022-07-22T03:27:57;3.15;;;0.80;;
59930;SDS011;45790;51.538;6.736;2022-07-22T03:30:22;2.20;;;0.70;;
59930;SDS011;45790;51.538;6.736;2022-07-22T03:32:48;2.25;;;0.75;;
59930;SDS011;45790;51.538;6.736;2022-07-22T03:35:13;2.63;;;0.90;;
59930;SDS011;45790;51.538;6.736;2022-07-22T03:37:39;5.03;;;1.17;;
59930;SDS011;45790;51.538;6.736;2022-07-22T03:40:05;2.50;;;1.02;;
59930;SDS011;45790;51.538;6.736;2022-07-22T03:42:30;2.28;;;0.95;;
59930;SDS011;45790;51.538;6.736;2022-07-22T03:44:56;0.88;;;0.63;;
59930;SDS011;45790;51.538;6.736;2022-07-22T03:47:21;1.77;;;0.90;;
59930;SDS011;45790;51.538;6.736;2022-07-22T03:49:47;1.58;;;0.63;;
59930;SDS011;45790;51.538;6.736;2022-07-22T03:52:13;2.85;;;0.77;;
59930;SDS011;45790;51.538;6.736;2022-07-22T03:54:39;2.47;;;0.93;;
59930;SDS011;45790;51.538;6.736;2022-07-22T03:57:05;2.53;;;0.90;;
59930;SDS011;45790;51.538;6.736;2022-07-22T03:59:30;3.28;;;0.98;;
59930;SDS011;45790;51.538;6.736;2022-07-22T04:01:55;2.28;;;0.85;;
59930;SDS011;45790;51.538;6.736;2022-07-22T04:04:21;4.82;;;1.05;;
59930;SDS011;45790;51.538;6.736;2022-07-22T04:06:46;3.55;;;1.08;;
59930;SDS011;45790;51.538;6.736;2022-07-22T04:09:11;3.28;;;0.93;;
59930;SDS011;45790;51.538;6.736;2022-07-22T04:11:37;3.13;;;1.05;;
59930;SDS011;45790;51.538;6.736;2022-07-22T04:14:02;3.72;;;1.10;;
59930;SDS011;45790;51.538;6.736;2022-07-22T04:16:27;3.47;;;0.80;;
59930;SDS011;45790;51.538;6.736;2022-07-22T04:18:53;3.28;;;0.90;;
59930;SDS011;45790;51.538;6.736;2022-07-22T04:21:18;4.55;;;1.20;;
59930;SDS011;45790;51.538;6.736;2022-07-22T04:23:43;5.95;;;1.20;;
59930;SDS011;45790;51.538;6.736;2022-07-22T04:26:09;2.15;;;0.90;;
59930;SDS011;45790;51.538;6.736;2022-07-22T04:28:34;3.45;;;0.95;;
59930;SDS011;45790;51.538;6.736;2022-07-22T04:31:01;4.63;;;1.00;;
59930;SDS011;45790;51.538;6.736;2022-07-22T04:33:29;4.15;;;1.00;;
59930;SDS011;45790;51.538;6.736;2022-07-22T04:35:54;4.18;;;1.02;;
59930;SDS011;45790;51.538;6.736;2022-07-22T04:38:20;2.20;;;0.80;;
59930;SDS011;45790;51.538;6.736;2022-07-22T04:40:45;2.30;;;0.90;;
59930;SDS011;45790;51.538;6.736;2022-07-22T04:43:11;3.60;;;1.00;;
59930;SDS011;45790;51.538;6.736;2022-07-22T04:45:36;2.65;;;0.95;;
59930;SDS011;45790;51.538;6.736;2022-07-22T04:48:01;4.60;;;1.10;;
59930;SDS011;45790;51.538;6.736;2022-07-22T04:50:27;2.50;;;0.77;;
59930;SDS011;45790;51.538;6.736;2022-07-22T04:52:52;4.28;;;1.20;;
59930;SDS011;45790;51.538;6.736;2022-07-22T04:55:17;2.67;;;1.00;;
59930;SDS011;45790;51.538;6.736;2022-07-22T04:57:42;1.63;;;0.80;;
59930;SDS011;45790;51.538;6.736;2022-07-22T05:00:08;2.65;;;0.98;;
59930;SDS011;45790;51.538;6.736;2022-07-22T05:02:34;3.08;;;1.08;;
59930;SDS011;45790;51.538;6.736;2022-07-22T05:04:59;2.50;;;0.90;;
59930;SDS011;45790;51.538;6.736;2022-07-22T05:07:24;4.35;;;1.27;;
59930;SDS011;45790;51.538;6.736;2022-07-22T05:09:50;3.97;;;1.15;;
59930;SDS011;45790;51.538;6.736;2022-07-22T05:12:15;5.47;;;0.90;;
59930;SDS011;45790;51.538;6.736;2022-07-22T05:14:40;3.38;;;1.00;;
59930;SDS011;45790;51.538;6.736;2022-07-22T05:17:12;3.67;;;1.10;;
59930;SDS011;45790;51.538;6.736;2022-07-22T05:19:38;3.60;;;1.10;;
59930;SDS011;45790;51.538;6.736;2022-07-22T05:22:05;3.67;;;1.00;;
59930;SDS011;45790;51.538;6.736;2022-07-22T05:24:31;3.97;;;0.90;;
59930;SDS011;45790;51.538;6.736;2022-07-22T05:26:56;5.07;;;1.10;;
59930;SDS011;45790;51.538;6.736;2022-07-22T05:29:22;4.65;;;1.23;;
59930;SDS011;45790;51.538;6.736;2022-07-22T05:31:47;2.83;;;1.10;;
59930;SDS011;45790;51.538;6.736;2022-07-22T05:34:13;5.32;;;1.20;;
59930;SDS011;45790;51.538;6.736;2022-07-22T05:36:38;3.90;;;1.10;;
59930;SDS011;45790;51.538;6.736;2022-07-22T05:39:03;3.50;;;1.13;;
59930;SDS011;45790;51.538;6.736;2022-07-22T05:41:28;3.72;;;1.00;;
59930;SDS011;45790;51.538;6.736;2022-07-22T05:43:54;2.13;;;1.20;;
59930;SDS011;45790;51.538;6.736;2022-07-22T05:46:19;3.60;;;0.85;;
59930;SDS011;45790;51.538;6.736;2022-07-22T05:48:44;4.30;;;1.17;;
59930;SDS011;45790;51.538;6.736;2022-07-22T05:51:13;3.10;;;0.85;;
59930;SDS011;45790;51.538;6.736;2022-07-22T05:53:39;5.32;;;1.27;;
59930;SDS011;45790;51.538;6.736;2022-07-22T05:56:04;3.28;;;1.13;;
59930;SDS011;45790;51.538;6.736;2022-07-22T05:58:30;5.25;;;1.38;;
59930;SDS011;45790;51.538;6.736;2022-07-22T06:00:55;2.40;;;0.90;;
59930;SDS011;45790;51.538;6.736;2022-07-22T06:03:22;3.22;;;1.20;;
59930;SDS011;45790;51.538;6.736;2022-07-22T06:05:47;4.15;;;1.50;;
59930;SDS011;45790;51.538;6.736;2022-07-22T06:08:12;4.18;;;1.58;;
59930;SDS011;45790;51.538;6.736;2022-07-22T06:10:38;3.33;;;1.30;;
59930;SDS011;45790;51.538;6.736;2022-07-22T06:13:03;3.60;;;1.33;;
59930;SDS011;45790;51.538;6.736;2022-07-22T06:15:28;4.32;;;1.60;;
59930;SDS011;45790;51.538;6.736;2022-07-22T06:17:54;5.50;;;1.95;;
59930;SDS011;45790;51.538;6.736;2022-07-22T06:20:22;4.88;;;1.90;;
59930;SDS011;45790;51.538;6.736;2022-07-22T06:22:47;4.70;;;1.60;;
59930;SDS011;45790;51.538;6.736;2022-07-22T06:25:13;6.05;;;1.90;;
59930;SDS011;45790;51.538;6.736;2022-07-22T06:27:38;3.95;;;1.88;;
59930;SDS011;45790;51.538;6.736;2022-07-22T06:30:04;3.08;;;1.27;;
59930;SDS011;45790;51.538;6.736;2022-07-22T06:32:29;4.07;;;1.80;;
59930;SDS011;45790;51.538;6.736;2022-07-22T06:34:55;4.95;;;1.50;;
59930;SDS011;45790;51.538;6.736;2022-07-22T06:37:20;5.05;;;1.60;;
59930;SDS011;45790;51.538;6.736;2022-07-22T06:39:45;3.78;;;1.50;;
59930;SDS011;45790;51.538;6.736;2022-07-22T06:42:13;2.58;;;1.40;;
59930;SDS011;45790;51.538;6.736;2022-07-22T06:44:38;4.10;;;1.55;;
59930;SDS011;45790;51.538;6.736;2022-07-22T06:47:03;3.28;;;1.27;;
59930;SDS011;45790;51.538;6.736;2022-07-22T06:49:29;5.40;;;1.38;;
59930;SDS011;45790;51.538;6.736;2022-07-22T06:51:54;3.33;;;1.23;;
59930;SDS011;45790;51.538;6.736;2022-07-22T06:54:19;4.90;;;1.38;;
59930;SDS011;45790;51.538;6.736;2022-07-22T06:56:45;3.47;;;1.10;;
59930;SDS011;45790;51.538;6.736;2022-07-22T06:59:10;5.47;;;1.45;;
59930;SDS011;45790;51.538;6.736;2022-07-22T07:01:35;2.58;;;1.20;;
59930;SDS011;45790;51.538;6.736;2022-07-22T07:04:01;3.17;;;1.15;;
59930;SDS011;45790;51.538;6.736;2022-07-22T07:06:27;4.20;;;1.23;;
59930;SDS011;45790;51.538;6.736;2022-07-22T07:08:52;2.83;;;1.30;;
59930;SDS011;45790;51.538;6.736;2022-07-22T07:11:17;4.18;;;1.30;;
59930;SDS011;45790;51.538;6.736;2022-07-22T07:13:43;3.20;;;1.30;;
59930;SDS011;45790;51.538;6.736;2022-07-22T07:16:08;4.60;;;1.35;;
59930;SDS011;45790;51.538;6.736;2022-07-22T07:18:33;4.97;;;1.48;;
59930;SDS011;45790;51.538;6.736;2022-07-22T07:20:59;4.07;;;1.23;;
59930;SDS011;45790;51.538;6.736;2022-07-22T07:23:24;3.35;;;1.10;;
59930;SDS011;45790;51.538;6.736;2022-07-22T07:25:49;3.03;;;1.27;;
59930;SDS011;45790;51.538;6.736;2022-07-22T07:28:15;4.28;;;1.40;;
59930;SDS011;45790;51.538;6.736;2022-07-22T07:30:40;4.57;;;1.20;;
59930;SDS011;45790;51.538;6.736;2022-07-22T07:33:06;3.70;;;1.05;;
59930;SDS011;45790;51.538;6.736;2022-07-22T07:35:31;2.35;;;1.00;;
59930;SDS011;45790;51.538;6.736;2022-07-22T07:37:56;3.60;;;1.40;;
59930;SDS011;45790;51.538;6.736;2022-07-22T07:40:22;3.25;;;1.10;;
59930;SDS011;45790;51.538;6.736;2022-07-22T07:42:47;2.67;;;1.08;;
59930;SDS011;45790;51.538;6.736;2022-07-22T07:45:13;2.47;;;0.93;;
59930;SDS011;45790;51.538;6.736;2022-07-22T07:47:39;3.03;;;0.93;;
59930;SDS011;45790;51.538;6.736;2022-07-22T07:50:05;2.08;;;0.98;;
59930;SDS011;45790;51.538;6.736;2022-07-22T07:52:36;2.97;;;1.20;;
59930;SDS011;45790;51.538;6.736;2022-07-22T07:55:08;4.70;;;1.30;;
59930;SDS011;45790;51.538;6.736;2022-07-22T07:57:34;5.22;;;1.17;;
59930;SDS011;45790;51.538;6.736;2022-07-22T08:00:00;2.08;;;1.20;;
59930;SDS011;45790;51.538;6.736;2022-07-22T08:02:26;4.40;;;1.08;;
59930;SDS011;45790;51.538;6.736;2022-07-22T08:04:51;3.25;;;1.20;;
59930;SDS011;45790;51.538;6.736;2022-07-22T08:07:17;3.17;;;1.00;;
59930;SDS011;45790;51.538;6.736;2022-07-22T08:09:42;1.98;;;0.82;;
59930;SDS011;45790;51.538;6.736;2022-07-22T08:12:07;3.53;;;1.20;;
59930;SDS011;45790;51.538;6.736;2022-07-22T08:14:33;2.80;;;0.93;;
59930;SDS011;45790;51.538;6.736;2022-07-22T08:16:58;4.47;;;1.20;;
59930;SDS011;45790;51.538;6.736;2022-07-22T08:19:24;3.28;;;1.05;;
59930;SDS011;45790;51.538;6.736;2022-07-22T08:21:49;1.88;;;0.90;;
59930;SDS011;45790;51.538;6.736;2022-07-22T08:24:14;5.28;;;1.50;;
59930;SDS011;45790;51.538;6.736;2022-07-22T08:26:40;3.78;;;1.27;;
59930;SDS011;45790;51.538;6.736;2022-07-22T08:29:05;3.88;;;1.25;;
59930;SDS011;45790;51.538;6.736;2022-07-22T08:31:32;4.25;;;0.93;;
59930;SDS011;45790;51.538;6.736;2022-07-22T08:33:59;5.95;;;1.45;;
59930;SDS011;45790;51.538;6.736;2022-07-22T08:36:26;5.40;;;1.40;;
59930;SDS011;45790;51.538;6.736;2022-07-22T08:38:51;5.15;;;1.30;;
59930;SDS011;45790;51.538;6.736;2022-07-22T08:41:18;3.97;;;1.20;;
59930;SDS011;45790;51.538;6.736;2022-07-22T08:43:43;3.65;;;1.40;;
59930;SDS011;45790;51.538;6.736;2022-07-22T08:46:11;4.65;;;1.42;;
59930;SDS011;45790;51.538;6.736;2022-07-22T08:48:37;4.70;;;1.58;;
59930;SDS011;45790;51.538;6.736;2022-07-22T08:51:03;4.25;;;1.40;;
59930;SDS011;45790;51.538;6.736;2022-07-22T08:53:29;5.57;;;1.40;;
59930;SDS011;45790;51.538;6.736;2022-07-22T08:55:54;5.60;;;1.38;;
59930;SDS011;45790;51.538;6.736;2022-07-22T08:58:19;4.85;;;1.25;;
59930;SDS011;45790;51.538;6.736;2022-07-22T09:00:45;3.65;;;1.35;;
59930;SDS011;45790;51.538;6.736;2022-07-22T09:05:47;4.68;;;1.40;;
59930;SDS011;45790;51.538;6.736;2022-07-22T09:08:16;6.40;;;1.55;;
59930;SDS011;45790;51.538;6.736;2022-07-22T09:10:42;3.78;;;1.40;;
59930;SDS011;45790;51.538;6.736;2022-07-22T09:13:08;3.17;;;1.55;;
59930;SDS011;45790;51.538;6.736;2022-07-22T09:15:35;3.67;;;1.48;;
59930;SDS011;45790;51.538;6.736;2022-07-22T09:18:02;3.72;;;1.35;;
59930;SDS011;45790;51.538;6.736;2022-07-22T09:20:29;5.00;;;1.70;;
59930;SDS011;45790;51.538;6.736;2022-07-22T09:22:54;4.38;;;1.70;;
59930;SDS011;45790;51.538;6.736;2022-07-22T09:30:32;4.30;;;1.90;;
59930;SDS011;45790;51.538;6.736;2022-07-22T09:33:06;3.50;;;1.63;;
59930;SDS011;45790;51.538;6.736;2022-07-22T09:35:32;3.95;;;1.90;;
59930;SDS011;45790;51.538;6.736;2022-07-22T09:37:59;4.55;;;1.85;;
59930;SDS011;45790;51.538;6.736;2022-07-22T09:40:26;4.80;;;1.92;;
59930;SDS011;45790;51.538;6.736;2022-07-22T09:42:55;5.25;;;2.00;;
59930;SDS011;45790;51.538;6.736;2022-07-22T09:45:22;5.93;;;1.98;;
59930;SDS011;45790;51.538;6.736;2022-07-22T09:47:49;3.72;;;1.80;;
59930;SDS011;45790;51.538;6.736;2022-07-22T09:52:40;5.15;;;1.95;;
59930;SDS011;45790;51.538;6.736;2022-07-22T09:55:07;2.85;;;1.88;;
59930;SDS011;45790;51.538;6.736;2022-07-22T09:57:33;3.55;;;1.73;;
59930;SDS011;45790;51.538;6.736;2022-07-22T09:59:58;5.00;;;1.90;;
59930;SDS011;45790;51.538;6.736;2022-07-22T10:02:24;3.67;;;1.52;;
59930;SDS011;45790;51.538;6.736;2022-07-22T10:04:50;3.85;;;1.88;;
59930;SDS011;45790;51.538;6.736;2022-07-22T10:07:15;5.25;;;1.90;;
59930;SDS011;45790;51.538;6.736;2022-07-22T10:09:41;5.68;;;2.00;;
59930;SDS011;45790;51.538;6.736;2022-07-22T10:12:09;4.97;;;1.73;;
59930;SDS011;45790;51.538;6.736;2022-07-22T10:14:35;4.38;;;1.58;;
59930;SDS011;45790;51.538;6.736;2022-07-22T10:17:02;4.20;;;1.80;;
59930;SDS011;45790;51.538;6.736;2022-07-22T10:19:27;4.07;;;1.95;;
59930;SDS011;45790;51.538;6.736;2022-07-22T10:21:53;7.72;;;1.88;;
59930;SDS011;45790;51.538;6.736;2022-07-22T10:24:18;4.53;;;1.88;;
59930;SDS011;45790;51.538;6.736;2022-07-22T10:26:53;3.20;;;1.58;;
59930;SDS011;45790;51.538;6.736;2022-07-22T10:29:24;5.75;;;1.90;;
59930;SDS011;45790;51.538;6.736;2022-07-22T10:40:45;4.45;;;1.90;;
59930;SDS011;45790;51.538;6.736;2022-07-22T10:48:11;5.68;;;2.15;;
59930;SDS011;45790;51.538;6.736;2022-07-22T10:50:40;4.45;;;2.08;;
59930;SDS011;45790;51.538;6.736;2022-07-22T10:55:33;5.10;;;2.15;;
59930;SDS011;45790;51.538;6.736;2022-07-22T10:57:59;3.90;;;2.15;;
59930;SDS011;45790;51.538;6.736;2022-07-22T11:00:25;5.07;;;2.30;;
59930;SDS011;45790;51.538;6.736;2022-07-22T11:02:51;3.17;;;2.05;;
59930;SDS011;45790;51.538;6.736;2022-07-22T11:05:26;4.88;;;2.05;;
59930;SDS011;45790;51.538;6.736;2022-07-22T11:07:52;7.10;;;2.10;;
59930;SDS011;45790;51.538;6.736;2022-07-22T11:10:19;9.25;;;2.47;;
59930;SDS011;45790;51.538;6.736;2022-07-22T11:12:45;4.70;;;2.10;;
59930;SDS011;45790;51.538;6.736;2022-07-22T11:15:11;4.00;;;2.05;;
59930;SDS011;45790;51.538;6.736;2022-07-22T11:17:37;4.28;;;1.90;;
59930;SDS011;45790;51.538;6.736;2022-07-22T11:20:04;3.72;;;1.92;;
59930;SDS011;45790;51.538;6.736;2022-07-22T11:22:31;6.57;;;2.10;;
59930;SDS011;45790;51.538;6.736;2022-07-22T11:24:56;5.63;;;2.13;;
59930;SDS011;45790;51.538;6.736;2022-07-22T11:27:22;5.22;;;1.70;;
59930;SDS011;45790;51.538;6.736;2022-07-22T11:29:49;3.95;;;2.08;;
59930;SDS011;45790;51.538;6.736;2022-07-22T11:32:15;4.60;;;2.17;;
59930;SDS011;45790;51.538;6.736;2022-07-22T11:34:42;5.10;;;1.90;;
59930;SDS011;45790;51.538;6.736;2022-07-22T11:39:37;4.03;;;1.92;;
59930;SDS011;45790;51.538;6.736;2022-07-22T11:42:03;3.65;;;1.98;;
59930;SDS011;45790;51.538;6.736;2022-07-22T11:44:30;6.10;;;2.08;;
59930;SDS011;45790;51.538;6.736;2022-07-22T11:46:57;4.25;;;1.80;;
59930;SDS011;45790;51.538;6.736;2022-07-22T11:49:26;3.95;;;1.75;;
59930;SDS011;45790;51.538;6.736;2022-07-22T11:51:53;3.67;;;1.98;;
59930;SDS011;45790;51.538;6.736;2022-07-22T11:54:19;2.55;;;1.50;;
59930;SDS011;45790;51.538;6.736;2022-07-22T11:56:44;4.45;;;1.70;;
59930;SDS011;45790;51.538;6.736;2022-07-22T11:59:14;4.40;;;1.80;;
59930;SDS011;45790;51.538;6.736;2022-07-22T12:01:40;3.30;;;1.65;;
59930;SDS011;45790;51.538;6.736;2022-07-22T12:04:09;4.38;;;1.70;;
59930;SDS011;45790;51.538;6.736;2022-07-22T12:11:40;5.45;;;1.75;;
59930;SDS011;45790;51.538;6.736;2022-07-22T12:14:12;4.47;;;2.05;;
59930;SDS011;45790;51.538;6.736;2022-07-22T12:16:43;3.60;;;1.77;;
59930;SDS011;45790;51.538;6.736;2022-07-22T12:19:10;9.48;;;1.90;;
59930;SDS011;45790;51.538;6.736;2022-07-22T12:21:49;10.43;;;1.90;;
59930;SDS011;45790;51.538;6.736;2022-07-22T12:24:58;9.52;;;1.77;;
59930;SDS011;45790;51.538;6.736;2022-07-22T12:27:15;5.65;;;2.05;;
59930;SDS011;45790;51.538;6.736;2022-07-22T12:29:43;5.22;;;2.20;;
59930;SDS011;45790;51.538;6.736;2022-07-22T12:40:00;4.60;;;1.80;;
59930;SDS011;45790;51.538;6.736;2022-07-22T12:42:31;4.22;;;1.83;;
59930;SDS011;45790;51.538;6.736;2022-07-22T12:45:02;6.75;;;1.60;;
59930;SDS011;45790;51.538;6.736;2022-07-22T12:47:48;4.88;;;1.80;;
59930;SDS011;45790;51.538;6.736;2022-07-22T12:50:17;3.85;;;1.67;;
59930;SDS011;45790;51.538;6.736;2022-07-22T12:52:48;6.65;;;1.80;;
59930;SDS011;45790;51.538;6.736;2022-07-22T12:55:14;5.68;;;1.90;;
59930;SDS011;45790;51.538;6.736;2022-07-22T12:57:39;3.25;;;1.75;;
59930;SDS011;45790;51.538;6.736;2022-07-22T13:00:05;5.47;;;1.80;;
59930;SDS011;45790;51.538;6.736;2022-07-22T13:02:31;5.43;;;1.73;;
59930;SDS011;45790;51.538;6.736;2022-07-22T13:04:56;3.45;;;2.10;;
59930;SDS011;45790;51.538;6.736;2022-07-22T13:07:21;3.75;;;1.60;;
59930;SDS011;45790;51.538;6.736;2022-07-22T13:09:46;4.03;;;1.95;;
59930;SDS011;45790;51.538;6.736;2022-07-22T13:12:12;5.40;;;1.90;;
59930;SDS011;45790;51.538;6.736;2022-07-22T13:14:37;4.07;;;1.60;;
59930;SDS011;45790;51.538;6.736;2022-07-22T13:17:03;11.63;;;1.77;;
59930;SDS011;45790;51.538;6.736;2022-07-22T13:19:28;5.22;;;2.00;;
59930;SDS011;45790;51.538;6.736;2022-07-22T13:21:53;6.38;;;2.50;;
59930;SDS011;45790;51.538;6.736;2022-07-22T13:24:19;7.00;;;2.13;;
59930;SDS011;45790;51.538;6.736;2022-07-22T13:26:44;7.72;;;2.10;;
59930;SDS011;45790;51.538;6.736;2022-07-22T13:29:10;6.47;;;2.35;;
59930;SDS011;45790;51.538;6.736;2022-07-22T13:31:35;5.63;;;2.42;;
59930;SDS011;45790;51.538;6.736;2022-07-22T13:34:01;6.20;;;2.17;;
59930;SDS011;45790;51.538;6.736;2022-07-22T13:36:26;8.48;;;2.45;;
59930;SDS011;45790;51.538;6.736;2022-07-22T13:38:53;6.80;;;2.40;;
59930;SDS011;45790;51.538;6.736;2022-07-22T13:41:18;6.18;;;2.40;;
59930;SDS011;45790;51.538;6.736;2022-07-22T13:43:44;5.65;;;2.25;;
59930;SDS011;45790;51.538;6.736;2022-07-22T13:46:10;5.68;;;2.00;;
59930;SDS011;45790;51.538;6.736;2022-07-22T13:48:35;5.47;;;2.00;;
59930;SDS011;45790;51.538;6.736;2022-07-22T13:51:00;6.93;;;2.30;;
59930;SDS011;45790;51.538;6.736;2022-07-22T13:53:26;5.72;;;2.53;;
59930;SDS011;45790;51.538;6.736;2022-07-22T13:55:51;4.95;;;2.40;;
59930;SDS011;45790;51.538;6.736;2022-07-22T13:58:17;4.82;;;2.00;;
59930;SDS011;45790;51.538;6.736;2022-07-22T14:00:42;3.97;;;1.98;;
59930;SDS011;45790;51.538;6.736;2022-07-22T14:03:07;5.05;;;2.00;;
59930;SDS011;45790;51.538;6.736;2022-07-22T14:05:33;4.28;;;2.30;;
59930;SDS011;45790;51.538;6.736;2022-07-22T14:07:58;4.05;;;1.90;;
59930;SDS011;45790;51.538;6.736;2022-07-22T14:10:23;3.58;;;1.80;;
59930;SDS011;45790;51.538;6.736;2022-07-22T14:12:48;3.45;;;1.90;;
59930;SDS011;45790;51.538;6.736;2022-07-22T14:15:15;3.33;;;1.90;;
59930;SDS011;45790;51.538;6.736;2022-07-22T14:17:40;3.83;;;1.80;;
59930;SDS011;45790;51.538;6.736;2022-07-22T14:20:06;6.88;;;2.60;;
59930;SDS011;45790;51.538;6.736;2022-07-22T14:22:32;3.30;;;1.90;;
59930;SDS011;45790;51.538;6.736;2022-07-22T14:24:58;3.72;;;1.90;;
59930;SDS011;45790;51.538;6.736;2022-07-22T14:27:23;5.82;;;2.17;;
59930;SDS011;45790;51.538;6.736;2022-07-22T14:29:48;3.22;;;1.70;;
59930;SDS011;45790;51.538;6.736;2022-07-22T14:32:14;4.95;;;1.92;;
59930;SDS011;45790;51.538;6.736;2022-07-22T14:34:39;4.57;;;1.85;;
59930;SDS011;45790;51.538;6.736;2022-07-22T14:37:04;4.45;;;2.05;;
59930;SDS011;45790;51.538;6.736;2022-07-22T14:39:30;4.22;;;2.00;;
59930;SDS011;45790;51.538;6.736;2022-07-22T14:41:55;5.90;;;2.00;;
59930;SDS011;45790;51.538;6.736;2022-07-22T14:44:20;7.45;;;2.30;;
59930;SDS011;45790;51.538;6.736;2022-07-22T14:46:46;4.63;;;1.85;;
59930;SDS011;45790;51.538;6.736;2022-07-22T14:49:11;3.08;;;1.70;;
59930;SDS011;45790;51.538;6.736;2022-07-22T14:51:36;3.40;;;1.50;;
59930;SDS011;45790;51.538;6.736;2022-07-22T14:54:02;5.28;;;1.90;;
59930;SDS011;45790;51.538;6.736;2022-07-22T14:56:28;3.67;;;1.80;;
59930;SDS011;45790;51.538;6.736;2022-07-22T14:58:53;3.75;;;1.67;;
59930;SDS011;45790;51.538;6.736;2022-07-22T15:01:19;3.83;;;1.92;;
59930;SDS011;45790;51.538;6.736;2022-07-22T15:03:44;3.70;;;1.60;;
59930;SDS011;45790;51.538;6.736;2022-07-22T15:06:10;4.05;;;1.73;;
59930;SDS011;45790;51.538;6.736;2022-07-22T15:08:35;2.80;;;1.50;;
59930;SDS011;45790;51.538;6.736;2022-07-22T15:11:01;5.60;;;1.63;;
59930;SDS011;45790;51.538;6.736;2022-07-22T15:13:27;4.10;;;1.60;;
59930;SDS011;45790;51.538;6.736;2022-07-22T15:15:53;3.70;;;1.60;;
59930;SDS011;45790;51.538;6.736;2022-07-22T15:18:19;5.50;;;1.92;;
59930;SDS011;45790;51.538;6.736;2022-07-22T15:20:44;3.05;;;1.65;;
59930;SDS011;45790;51.538;6.736;2022-07-22T15:23:09;3.35;;;1.70;;